createdAt,value
2019-02-19T00:02:20.778Z,98162.89
2019-02-19T00:07:25.514Z,98166.00
2019-02-19T00:12:31.260Z,98162.66
2019-02-19T00:17:35.919Z,98159.78
2019-02-19T00:22:40.666Z,98164.36
2019-02-19T00:27:45.301Z,98155.75
2019-02-19T00:32:51.748Z,98154.52
2019-02-19T00:37:56.529Z,98152.53
2019-02-19T00:43:01.275Z,98149.45
2019-02-19T00:48:06.017Z,98140.48
2019-02-19T00:53:10.755Z,98132.64
2019-02-19T00:58:15.300Z,98136.25
2019-02-19T01:03:19.937Z,98140.34
2019-02-19T01:08:24.680Z,98123.38
2019-02-19T01:13:29.422Z,98121.41
2019-02-19T01:18:33.976Z,98115.17
2019-02-19T01:23:38.703Z,98114.81
2019-02-19T01:28:43.441Z,98104.60
2019-02-19T01:33:48.189Z,98092.86
2019-02-19T01:38:52.828Z,98094.67
2019-02-19T01:43:57.568Z,98089.55
2019-02-19T01:49:03.847Z,98095.99
2019-02-19T01:54:08.700Z,98096.24
2019-02-19T01:59:13.331Z,98088.21
2019-02-19T02:04:17.974Z,98089.42
2019-02-19T02:09:22.603Z,98087.55
2019-02-19T02:14:27.354Z,98085.73
2019-02-19T02:19:31.996Z,98091.96
2019-02-19T02:24:36.735Z,98094.65
2019-02-19T02:29:43.100Z,98094.20
2019-02-19T02:34:47.751Z,98094.73
2019-02-19T02:39:52.507Z,98088.36
2019-02-19T02:44:57.242Z,98087.67
2019-02-19T02:50:01.988Z,98090.73
2019-02-19T02:55:06.940Z,98088.36
2019-02-19T03:00:13.419Z,98086.94
2019-02-19T03:05:18.160Z,98080.74
2019-02-19T03:10:22.907Z,98083.56
2019-02-19T03:15:27.644Z,98081.07
2019-02-19T03:20:32.385Z,98079.38
2019-02-19T03:25:37.134Z,98080.05
2019-02-19T03:30:43.619Z,98077.88
2019-02-19T03:35:48.147Z,98076.77
2019-02-19T03:40:52.720Z,98076.69
2019-02-19T03:45:57.428Z,98079.38
2019-02-19T03:51:02.068Z,98077.95
2019-02-19T03:56:06.724Z,98071.59
2019-02-19T04:01:11.350Z,98074.16
2019-02-19T04:06:16.010Z,98082.20
2019-02-19T04:11:20.734Z,98080.06
2019-02-19T04:16:25.303Z,98076.38
2019-02-19T04:21:30.125Z,98085.38
2019-02-19T04:26:34.880Z,98077.34
2019-02-19T04:31:39.491Z,98085.38
2019-02-19T04:36:44.243Z,98093.50
2019-02-19T04:41:48.985Z,98094.61
2019-02-19T04:46:54.612Z,98096.68
2019-02-19T04:51:59.389Z,98102.58
2019-02-19T04:57:06.083Z,98104.98
2019-02-19T05:02:10.828Z,98096.13
2019-02-19T05:07:15.563Z,98101.55
2019-02-19T05:12:20.309Z,98102.06
2019-02-19T05:17:25.153Z,98102.87
2019-02-19T05:22:29.893Z,98107.34
2019-02-19T05:27:34.526Z,98103.23
2019-02-19T05:32:39.275Z,98108.91
2019-02-19T05:37:44.019Z,98114.15
2019-02-19T05:42:50.065Z,98117.75
2019-02-19T05:47:54.853Z,98114.92
2019-02-19T05:52:59.580Z,98114.36
2019-02-19T05:58:05.415Z,98124.77
2019-02-19T06:03:12.085Z,98134.16
2019-02-19T06:08:17.412Z,98131.44
2019-02-19T06:13:23.288Z,98141.42
2019-02-19T06:18:28.409Z,98140.94
2019-02-19T06:23:33.153Z,98135.05
2019-02-19T06:28:37.892Z,98130.33
2019-02-19T06:33:43.511Z,98134.17
2019-02-19T06:38:48.304Z,98138.81
2019-02-19T06:43:53.064Z,98142.03
2019-02-19T06:48:57.789Z,98127.09
2019-02-19T06:54:02.528Z,98136.33
2019-02-19T06:59:07.278Z,98131.94
2019-02-19T07:04:19.695Z,98123.14
2019-02-19T07:09:24.438Z,98121.58
2019-02-19T07:14:29.176Z,98115.84
2019-02-19T07:19:33.920Z,98115.56
2019-02-19T07:24:38.781Z,98112.44
2019-02-19T07:29:44.533Z,98110.66
2019-02-19T07:34:49.385Z,98100.23
2019-02-19T07:39:54.129Z,98108.17
2019-02-19T07:44:58.775Z,98103.66
2019-02-19T07:50:05.778Z,98098.56
2019-02-19T07:55:10.854Z,98095.73
2019-02-19T08:00:15.559Z,98088.34
2019-02-19T08:05:20.290Z,98087.34
2019-02-19T08:10:25.042Z,98089.27
2019-02-19T08:15:29.782Z,98086.48
2019-02-19T08:20:34.419Z,98077.91
2019-02-19T08:25:39.273Z,98085.14
2019-02-19T08:30:44.214Z,98080.31
2019-02-19T08:35:50.406Z,98086.20
2019-02-19T08:40:55.263Z,98073.39
2019-02-19T08:46:03.051Z,98072.61
2019-02-19T08:51:07.790Z,98076.28
2019-02-19T08:56:12.950Z,98075.58
2019-02-19T09:01:17.586Z,98070.64
2019-02-19T09:06:23.255Z,98063.53
2019-02-19T09:11:27.889Z,98057.28
2019-02-19T09:16:33.732Z,98058.17
2019-02-19T09:21:38.501Z,98054.56
2019-02-19T09:26:43.249Z,98051.81
2019-02-19T09:31:47.990Z,98050.61
2019-02-19T09:36:52.640Z,98050.73
2019-02-19T09:41:58.297Z,98035.38
2019-02-19T09:47:02.940Z,98033.03
2019-02-19T09:52:07.578Z,98030.81
2019-02-19T09:57:12.216Z,98011.75
2019-02-19T10:02:17.840Z,98009.33
2019-02-19T10:07:22.624Z,98000.09
2019-02-19T10:12:28.394Z,97994.25
2019-02-19T10:17:33.135Z,97983.91
2019-02-19T10:22:37.779Z,97966.08
2019-02-19T10:27:43.696Z,97959.78
2019-02-19T10:32:48.386Z,97954.34
2019-02-19T10:37:54.673Z,97943.09
2019-02-19T10:42:59.324Z,97928.89
2019-02-19T10:48:04.363Z,97918.23
2019-02-19T10:53:08.950Z,97910.34
2019-02-19T10:58:22.317Z,97905.93
2019-02-19T11:03:19.929Z,97890.67
2019-02-19T11:08:24.519Z,97881.35
2019-02-19T11:13:29.416Z,97877.50
2019-02-19T11:18:35.752Z,97870.17
2019-02-19T11:23:40.436Z,97868.41
2019-02-19T11:28:45.200Z,97860.48
2019-02-19T11:33:50.943Z,97858.16
2019-02-19T11:38:55.790Z,97850.47
2019-02-19T11:44:00.361Z,97837.14
2019-02-19T11:49:05.071Z,97826.80
2019-02-19T11:54:09.719Z,97821.20
2019-02-19T11:59:16.247Z,97817.77
2019-02-19T12:04:22.272Z,97808.30
2019-02-19T12:09:26.986Z,97799.28
2019-02-19T12:14:31.764Z,97799.72
2019-02-19T12:19:38.349Z,97789.95
2019-02-19T12:24:43.094Z,97784.86
2019-02-19T12:29:49.478Z,97773.52
2019-02-19T12:34:54.981Z,97770.20
2019-02-19T12:39:59.792Z,97764.76
2019-02-19T12:45:04.934Z,97761.72
2019-02-19T12:50:17.264Z,97752.29
2019-02-19T12:55:21.999Z,97756.89
2019-02-19T13:00:26.582Z,97752.54
2019-02-19T13:05:31.290Z,97745.27
2019-02-19T13:10:36.104Z,97746.58
2019-02-19T13:15:42.613Z,97746.33
2019-02-19T13:20:48.276Z,97738.32
2019-02-19T13:25:53.021Z,97742.58
2019-02-19T13:30:58.126Z,97737.95
2019-02-19T13:36:02.923Z,97728.66
2019-02-19T13:41:07.661Z,97724.16
2019-02-19T13:46:13.260Z,97726.41
2019-02-19T13:51:18.215Z,97729.16
2019-02-19T13:56:23.019Z,97720.55
2019-02-19T14:01:27.664Z,97722.73
2019-02-19T14:06:32.301Z,97718.31
2019-02-19T14:11:39.853Z,97714.45
2019-02-19T14:16:47.646Z,97714.92
2019-02-19T14:22:04.661Z,97706.30
2019-02-19T14:27:29.062Z,97706.37
2019-02-19T14:32:38.126Z,97700.60
2019-02-19T14:37:53.092Z,97697.14
2019-02-19T14:43:08.696Z,97696.33
2019-02-19T14:48:31.461Z,97702.95
2019-02-19T14:53:37.736Z,97701.70
2019-02-19T14:58:52.925Z,97698.99
2019-02-19T15:04:15.488Z,97701.41
2019-02-19T15:09:31.184Z,97702.10
2019-02-19T15:14:43.303Z,97701.14
2019-02-19T15:19:56.853Z,97702.33
2019-02-19T15:25:20.643Z,97708.31
2019-02-19T15:30:43.719Z,97716.24
2019-02-19T15:35:55.744Z,97717.18
2019-02-19T15:41:18.704Z,97724.89
2019-02-19T15:46:25.086Z,97731.66
2019-02-19T15:51:47.744Z,97733.84
2019-02-19T15:56:56.790Z,97744.56
2019-02-19T16:02:11.819Z,97751.03
2019-02-19T16:07:18.159Z,97760.09
2019-02-19T16:12:24.432Z,97760.23
2019-02-19T16:17:39.933Z,97773.53
2019-02-19T16:23:02.700Z,97784.47
2019-02-19T16:28:12.363Z,97797.92
2019-02-19T16:33:21.612Z,97802.08
2019-02-19T16:38:44.378Z,97804.92
2019-02-19T16:44:07.440Z,97810.61
2019-02-19T16:49:16.949Z,97812.08
2019-02-19T16:54:23.793Z,97821.02
2019-02-19T16:59:45.635Z,97822.02
2019-02-19T17:04:58.062Z,97821.14
2019-02-19T17:10:10.099Z,97822.54
2019-02-19T17:15:25.673Z,97815.45
2019-02-19T17:20:32.358Z,97821.18
2019-02-19T17:25:50.342Z,97825.45
2019-02-19T17:31:02.538Z,97833.06
2019-02-19T17:36:22.233Z,97827.45
2019-02-19T17:41:31.577Z,97819.58
2019-02-19T17:46:53.214Z,97821.17
2019-02-19T17:52:00.173Z,97812.52
2019-02-19T17:57:09.674Z,97809.19
2019-02-19T18:02:31.822Z,97810.56
2019-02-19T18:07:41.384Z,97814.33
2019-02-19T18:12:50.755Z,97806.43
2019-02-19T18:18:04.939Z,97804.34
2019-02-19T18:23:11.376Z,97813.27
2019-02-19T18:28:16.085Z,97805.20
2019-02-19T18:33:24.061Z,97806.35
2019-02-19T18:38:28.877Z,97812.30
2019-02-19T18:43:34.749Z,97809.66
2019-02-19T18:48:40.824Z,97806.78
2019-02-19T18:53:45.994Z,97809.62
2019-02-19T18:58:51.139Z,97802.30
2019-02-19T19:03:57.222Z,97808.26
2019-02-19T19:09:04.589Z,97806.72
2019-02-19T19:14:10.488Z,97808.91
2019-02-19T19:19:16.740Z,97819.84
2019-02-19T19:24:23.421Z,97822.55
2019-02-19T19:29:27.880Z,97831.42
2019-02-19T19:34:33.110Z,97836.83
2019-02-19T19:39:39.513Z,97834.92
2019-02-19T19:44:44.272Z,97844.92
2019-02-19T19:49:49.101Z,97842.91
2019-02-19T19:54:53.957Z,97845.88
2019-02-19T19:59:59.509Z,97844.44
2019-02-19T20:05:06.093Z,97842.75
2019-02-19T20:10:12.795Z,97845.25
2019-02-19T20:15:17.629Z,97842.48
2019-02-19T20:20:23.825Z,97840.23
2019-02-19T20:25:28.645Z,97833.06
2019-02-19T20:30:34.001Z,97832.34
2019-02-19T20:35:38.849Z,97825.82
2019-02-19T20:40:45.233Z,97827.78
2019-02-19T20:45:50.075Z,97826.78
2019-02-19T20:50:56.586Z,97824.92
2019-02-19T20:56:01.309Z,97831.64
2019-02-19T21:01:08.816Z,97825.25
2019-02-19T21:06:13.880Z,97827.08
2019-02-19T21:11:20.166Z,97828.69
2019-02-19T21:16:25.424Z,97829.18
2019-02-19T21:21:30.266Z,97826.50
2019-02-19T21:26:38.097Z,97820.83
2019-02-19T21:31:43.345Z,97814.07
2019-02-19T21:36:47.917Z,97814.53
2019-02-19T21:41:53.568Z,97807.50
2019-02-19T21:46:58.461Z,97812.83
2019-02-19T21:52:04.198Z,97813.36
2019-02-19T21:57:09.021Z,97813.44
2019-02-19T22:02:16.601Z,97812.54
2019-02-19T22:07:21.540Z,97813.98
2019-02-19T22:12:26.762Z,97806.64
2019-02-19T22:17:31.839Z,97807.62
2019-02-19T22:22:37.952Z,97805.84
2019-02-19T22:27:43.197Z,97809.17
2019-02-19T22:32:49.563Z,97806.30
2019-02-19T22:37:54.533Z,97811.73
2019-02-19T22:42:59.231Z,97816.50
2019-02-19T22:48:03.976Z,97822.55
2019-02-19T22:53:10.457Z,97825.23
2019-02-19T22:58:15.454Z,97825.58
2019-02-19T23:03:21.722Z,97826.03
2019-02-19T23:08:31.379Z,97824.00
2019-02-19T23:13:38.745Z,97827.54
2019-02-19T23:18:45.223Z,97831.32
2019-02-19T23:23:50.819Z,97827.16
2019-02-19T23:28:55.533Z,97822.28
2019-02-19T23:34:00.272Z,97824.34
2019-02-19T23:39:06.261Z,97824.51
2019-02-19T23:44:13.037Z,97825.79
2019-02-19T23:49:18.665Z,97833.97
2019-02-19T23:54:23.346Z,97838.27
2019-02-19T23:59:28.098Z,97826.11
